sensor_id;sensor_type;location;lat;lon;timestamp;pressure;altitude;pressure_sealevel;temperature;humidity
59435;BME280;45241;49.768;8.636;2023-03-24T00:01:49;99193.81;;;16.68;75.99
59435;BME280;45241;49.768;8.636;2023-03-24T00:04:15;99179.22;;;16.69;75.34
59435;BME280;45241;49.768;8.636;2023-03-24T00:06:43;99190.75;;;16.59;75.75
59435;BME280;45241;49.768;8.636;2023-03-24T00:09:09;99179.22;;;16.69;75.79
59435;BME280;45241;49.768;8.636;2023-03-24T00:11:34;99179.56;;;16.72;76.01
59435;BME280;45241;49.768;8.636;2023-03-24T00:14:01;99177.34;;;16.69;74.84
59435;BME280;45241;49.768;8.636;2023-03-24T00:16:27;99173.91;;;16.74;75.15
59435;BME280;45241;49.768;8.636;2023-03-24T00:18:53;99160.28;;;16.69;75.15
59435;BME280;45241;49.768;8.636;2023-03-24T00:21:19;99160.09;;;16.76;73.84
59435;BME280;45241;49.768;8.636;2023-03-24T00:23:52;99152.50;;;16.72;74.52
59435;BME280;45241;49.768;8.636;2023-03-24T00:26:23;99152.31;;;16.84;73.40
59435;BME280;45241;49.768;8.636;2023-03-24T00:28:49;99136.03;;;16.79;73.41
59435;BME280;45241;49.768;8.636;2023-03-24T00:31:16;99133.88;;;16.81;73.78
59435;BME280;45241;49.768;8.636;2023-03-24T00:33:43;99125.22;;;16.79;74.02
59435;BME280;45241;49.768;8.636;2023-03-24T00:36:10;99119.00;;;16.84;73.82
59435;BME280;45241;49.768;8.636;2023-03-24T00:38:36;99113.78;;;16.72;73.26
59435;BME280;45241;49.768;8.636;2023-03-24T00:41:04;99112.28;;;16.86;73.42
59435;BME280;45241;49.768;8.636;2023-03-24T00:43:30;99100.34;;;16.82;73.74
59435;BME280;45241;49.768;8.636;2023-03-24T00:46:08;99107.13;;;16.85;73.72
59435;BME280;45241;49.768;8.636;2023-03-24T00:48:36;99098.16;;;16.79;72.92
59435;BME280;45241;49.768;8.636;2023-03-24T00:51:03;99103.31;;;16.81;72.25
59435;BME280;45241;49.768;8.636;2023-03-24T00:53:29;99101.47;;;16.86;72.60
59435;BME280;45241;49.768;8.636;2023-03-24T00:55:56;99100.88;;;16.84;72.68
59435;BME280;45241;49.768;8.636;2023-03-24T00:58:22;99093.56;;;16.80;72.52
59435;BME280;45241;49.768;8.636;2023-03-24T01:00:50;99080.69;;;16.65;72.86
59435;BME280;45241;49.768;8.636;2023-03-24T01:03:17;99079.19;;;16.74;74.82
59435;BME280;45241;49.768;8.636;2023-03-24T01:05:47;99067.53;;;16.73;74.75
59435;BME280;45241;49.768;8.636;2023-03-24T01:08:16;99055.91;;;16.73;74.95
59435;BME280;45241;49.768;8.636;2023-03-24T01:10:47;99059.88;;;16.65;75.72
59435;BME280;45241;49.768;8.636;2023-03-24T01:13:21;99052.88;;;16.69;75.43
59435;BME280;45241;49.768;8.636;2023-03-24T01:15:47;99038.44;;;16.59;75.52
59435;BME280;45241;49.768;8.636;2023-03-24T01:18:14;99042.78;;;16.60;74.33
59435;BME280;45241;49.768;8.636;2023-03-24T01:20:41;99044.97;;;16.63;73.87
59435;BME280;45241;49.768;8.636;2023-03-24T01:23:10;99048.28;;;16.70;72.93
59435;BME280;45241;49.768;8.636;2023-03-24T01:25:36;99049.59;;;16.67;72.79
59435;BME280;45241;49.768;8.636;2023-03-24T01:28:02;99057.69;;;16.62;71.81
59435;BME280;45241;49.768;8.636;2023-03-24T01:30:28;99038.41;;;16.54;70.67
59435;BME280;45241;49.768;8.636;2023-03-24T01:32:54;99042.19;;;16.53;71.84
59435;BME280;45241;49.768;8.636;2023-03-24T01:35:21;99044.88;;;16.53;70.03
59435;BME280;45241;49.768;8.636;2023-03-24T01:37:47;99040.56;;;16.52;69.69
59435;BME280;45241;49.768;8.636;2023-03-24T01:40:17;99019.00;;;16.62;68.23
59435;BME280;45241;49.768;8.636;2023-03-24T01:42:43;99029.94;;;16.77;66.84
59435;BME280;45241;49.768;8.636;2023-03-24T01:50:36;99009.47;;;16.91;66.83
59435;BME280;45241;49.768;8.636;2023-03-24T01:53:03;99014.00;;;16.81;66.78
59435;BME280;45241;49.768;8.636;2023-03-24T01:55:30;99010.81;;;16.89;67.22
59435;BME280;45241;49.768;8.636;2023-03-24T01:57:58;99013.78;;;16.87;66.22
59435;BME280;45241;49.768;8.636;2023-03-24T02:00:24;99008.59;;;16.81;66.14
59435;BME280;45241;49.768;8.636;2023-03-24T02:02:54;99011.06;;;16.87;66.37
59435;BME280;45241;49.768;8.636;2023-03-24T02:05:25;99004.84;;;16.92;66.18
59435;BME280;45241;49.768;8.636;2023-03-24T02:08:04;99007.25;;;16.83;66.89
59435;BME280;45241;49.768;8.636;2023-03-24T02:10:33;99000.75;;;16.84;66.61
59435;BME280;45241;49.768;8.636;2023-03-24T02:12:59;98999.72;;;16.95;66.07
59435;BME280;45241;49.768;8.636;2023-03-24T02:15:27;98995.94;;;16.96;66.34
59435;BME280;45241;49.768;8.636;2023-03-24T02:18:14;98980.00;;;17.00;65.81
59435;BME280;45241;49.768;8.636;2023-03-24T02:24:10;98967.06;;;17.17;65.10
59435;BME280;45241;49.768;8.636;2023-03-24T02:44:09;98924.88;;;17.37;64.02
59435;BME280;45241;49.768;8.636;2023-03-24T02:46:44;98920.28;;;17.32;63.66
59435;BME280;45241;49.768;8.636;2023-03-24T02:49:24;98916.75;;;17.37;63.52
59435;BME280;45241;49.768;8.636;2023-03-24T02:52:03;98925.72;;;17.47;62.81
59435;BME280;45241;49.768;8.636;2023-03-24T02:57:41;98938.72;;;17.45;63.40
59435;BME280;45241;49.768;8.636;2023-03-24T03:00:15;98934.97;;;17.51;62.71
59435;BME280;45241;49.768;8.636;2023-03-24T03:02:58;98949.59;;;17.60;62.02
59435;BME280;45241;49.768;8.636;2023-03-24T03:05:39;98949.88;;;17.64;62.43
59435;BME280;45241;49.768;8.636;2023-03-24T03:08:08;98952.59;;;17.69;62.06
59435;BME280;45241;49.768;8.636;2023-03-24T03:10:38;98942.28;;;17.61;62.12
59435;BME280;45241;49.768;8.636;2023-03-24T03:13:09;98958.84;;;17.65;62.17
59435;BME280;45241;49.768;8.636;2023-03-24T03:15:38;98951.25;;;17.67;62.09
59435;BME280;45241;49.768;8.636;2023-03-24T03:18:13;98958.84;;;17.65;62.32
59435;BME280;45241;49.768;8.636;2023-03-24T03:20:44;98939.56;;;17.61;62.70
59435;BME280;45241;49.768;8.636;2023-03-24T03:23:24;98941.19;;;17.57;63.17
59435;BME280;45241;49.768;8.636;2023-03-24T03:25:55;98949.84;;;17.59;63.28
59435;BME280;45241;49.768;8.636;2023-03-24T03:28:24;98950.94;;;17.63;62.92
59435;BME280;45241;49.768;8.636;2023-03-24T03:30:56;98944.97;;;17.61;63.27
59435;BME280;45241;49.768;8.636;2023-03-24T03:33:30;98944.72;;;17.62;63.86
59435;BME280;45241;49.768;8.636;2023-03-24T03:36:09;98948.22;;;17.53;64.62
59435;BME280;45241;49.768;8.636;2023-03-24T03:41:19;98951.19;;;17.46;64.84
59435;BME280;45241;49.768;8.636;2023-03-24T03:43:46;98956.59;;;17.46;65.49
59435;BME280;45241;49.768;8.636;2023-03-24T03:46:13;98940.06;;;17.43;66.04
59435;BME280;45241;49.768;8.636;2023-03-24T03:48:40;98953.88;;;17.41;66.31
59435;BME280;45241;49.768;8.636;2023-03-24T03:51:06;98950.88;;;17.32;67.10
59435;BME280;45241;49.768;8.636;2023-03-24T03:53:51;98959.53;;;17.35;67.20
59435;BME280;45241;49.768;8.636;2023-03-24T03:56:21;98962.78;;;17.26;67.62
59435;BME280;45241;49.768;8.636;2023-03-24T03:58:47;98957.09;;;17.33;67.76
59435;BME280;45241;49.768;8.636;2023-03-24T04:01:16;98954.44;;;17.38;67.43
59435;BME280;45241;49.768;8.636;2023-03-24T04:03:57;98963.56;;;17.22;68.76
59435;BME280;45241;49.768;8.636;2023-03-24T04:06:33;98973.84;;;17.20;68.56
59435;BME280;45241;49.768;8.636;2023-03-24T04:14:49;98983.31;;;17.12;69.49
59435;BME280;45241;49.768;8.636;2023-03-24T04:25:30;99005.31;;;17.26;70.82
59435;BME280;45241;49.768;8.636;2023-03-24T04:28:15;99021.78;;;17.14;71.58
59435;BME280;45241;49.768;8.636;2023-03-24T04:30:53;99020.97;;;17.14;72.53
59435;BME280;45241;49.768;8.636;2023-03-24T04:33:32;99025.81;;;17.12;72.18
59435;BME280;45241;49.768;8.636;2023-03-24T04:36:10;99014.34;;;16.94;73.67
59435;BME280;45241;49.768;8.636;2023-03-24T04:38:45;99028.13;;;16.93;74.82
59435;BME280;45241;49.768;8.636;2023-03-24T04:41:13;99042.50;;;16.98;75.07
59435;BME280;45241;49.768;8.636;2023-03-24T04:43:42;99018.66;;;16.90;75.94
59435;BME280;45241;49.768;8.636;2023-03-24T04:46:09;99033.81;;;16.86;76.61
59435;BME280;45241;49.768;8.636;2023-03-24T04:48:35;99022.19;;;16.96;76.25
59435;BME280;45241;49.768;8.636;2023-03-24T04:51:01;99013.53;;;16.94;76.81
59435;BME280;45241;49.768;8.636;2023-03-24T04:53:27;99025.63;;;16.81;77.71
59435;BME280;45241;49.768;8.636;2023-03-24T04:55:57;99018.66;;;16.90;77.95
59435;BME280;45241;49.768;8.636;2023-03-24T04:58:25;99029.28;;;16.65;80.57
59435;BME280;45241;49.768;8.636;2023-03-24T05:00:50;99033.84;;;16.59;82.32
59435;BME280;45241;49.768;8.636;2023-03-24T05:03:16;99030.38;;;16.69;83.40
59435;BME280;45241;49.768;8.636;2023-03-24T05:05:43;99032.16;;;16.48;86.24
59435;BME280;45241;49.768;8.636;2023-03-24T05:08:09;99032.41;;;16.14;87.30
59435;BME280;45241;49.768;8.636;2023-03-24T05:10:35;99021.72;;;16.30;88.44
59435;BME280;45241;49.768;8.636;2023-03-24T05:13:01;99027.59;;;16.22;89.85
59435;BME280;45241;49.768;8.636;2023-03-24T05:15:27;99022.50;;;16.25;90.21
59435;BME280;45241;49.768;8.636;2023-03-24T05:17:52;99017.66;;;16.00;91.40
59435;BME280;45241;49.768;8.636;2023-03-24T05:20:17;99005.59;;;16.08;92.19
59435;BME280;45241;49.768;8.636;2023-03-24T05:22:43;98996.16;;;15.83;93.04
59435;BME280;45241;49.768;8.636;2023-03-24T05:25:09;98985.91;;;15.85;94.13
59435;BME280;45241;49.768;8.636;2023-03-24T05:27:34;98982.44;;;15.63;94.87
59435;BME280;45241;49.768;8.636;2023-03-24T05:29:59;98981.06;;;15.39;96.01
59435;BME280;45241;49.768;8.636;2023-03-24T05:32:24;98983.84;;;15.44;96.65
59435;BME280;45241;49.768;8.636;2023-03-24T05:34:50;98969.56;;;15.70;95.77
59435;BME280;45241;49.768;8.636;2023-03-24T05:37:15;98972.56;;;15.74;95.14
59435;BME280;45241;49.768;8.636;2023-03-24T05:39:42;98997.13;;;15.72;95.75
59435;BME280;45241;49.768;8.636;2023-03-24T05:42:08;99006.25;;;15.66;94.55
59435;BME280;45241;49.768;8.636;2023-03-24T05:44:33;98990.25;;;15.60;94.85
59435;BME280;45241;49.768;8.636;2023-03-24T05:46:58;99006.03;;;15.51;94.89
59435;BME280;45241;49.768;8.636;2023-03-24T05:49:24;98989.44;;;15.59;94.05
59435;BME280;45241;49.768;8.636;2023-03-24T05:51:49;99015.16;;;15.67;94.11
59435;BME280;45241;49.768;8.636;2023-03-24T05:54:15;99012.22;;;15.46;94.32
59435;BME280;45241;49.768;8.636;2023-03-24T05:56:40;99004.00;;;15.58;93.13
59435;BME280;45241;49.768;8.636;2023-03-24T05:59:05;99016.84;;;15.51;93.85
59435;BME280;45241;49.768;8.636;2023-03-24T06:01:31;99009.31;;;15.53;93.36
59435;BME280;45241;49.768;8.636;2023-03-24T06:03:56;99014.84;;;15.63;93.29
59435;BME280;45241;49.768;8.636;2023-03-24T06:06:21;99036.16;;;15.60;93.88
59435;BME280;45241;49.768;8.636;2023-03-24T06:08:47;99039.44;;;15.62;93.42
59435;BME280;45241;49.768;8.636;2023-03-24T06:11:13;99036.69;;;15.57;93.66
59435;BME280;45241;49.768;8.636;2023-03-24T06:13:39;99053.78;;;15.67;92.80
59435;BME280;45241;49.768;8.636;2023-03-24T06:16:04;99058.72;;;15.70;92.45
59435;BME280;45241;49.768;8.636;2023-03-24T06:18:30;99061.97;;;15.72;92.53
59435;BME280;45241;49.768;8.636;2023-03-24T06:20:56;99059.38;;;15.82;91.87
59435;BME280;45241;49.768;8.636;2023-03-24T06:23:22;99059.63;;;15.81;92.17
59435;BME280;45241;49.768;8.636;2023-03-24T06:25:51;99045.09;;;15.87;91.71
59435;BME280;45241;49.768;8.636;2023-03-24T06:28:16;99048.31;;;15.84;91.74
59435;BME280;45241;49.768;8.636;2023-03-24T06:30:43;99044.03;;;15.88;91.49
59435;BME280;45241;49.768;8.636;2023-03-24T06:33:08;99041.38;;;15.93;91.76
59435;BME280;45241;49.768;8.636;2023-03-24T06:35:35;99036.59;;;15.73;92.36
59435;BME280;45241;49.768;8.636;2023-03-24T06:38:01;99032.59;;;15.81;92.40
59435;BME280;45241;49.768;8.636;2023-03-24T06:40:26;99049.94;;;15.85;91.83
59435;BME280;45241;49.768;8.636;2023-03-24T06:42:51;99052.97;;;15.89;91.39
59435;BME280;45241;49.768;8.636;2023-03-24T06:45:17;99052.91;;;15.83;91.64
59435;BME280;45241;49.768;8.636;2023-03-24T06:47:42;99064.84;;;15.88;90.86
59435;BME280;45241;49.768;8.636;2023-03-24T06:50:08;99052.25;;;15.71;92.31
59435;BME280;45241;49.768;8.636;2023-03-24T06:52:34;99054.59;;;15.90;91.37
59435;BME280;45241;49.768;8.636;2023-03-24T06:55:00;99057.28;;;15.90;91.80
59435;BME280;45241;49.768;8.636;2023-03-24T06:57:26;99063.97;;;15.82;92.52
59435;BME280;45241;49.768;8.636;2023-03-24T06:59:51;99065.66;;;15.88;92.20
59435;BME280;45241;49.768;8.636;2023-03-24T07:02:17;99065.66;;;15.88;92.69
59435;BME280;45241;49.768;8.636;2023-03-24T07:04:42;99059.28;;;15.72;93.12
59435;BME280;45241;49.768;8.636;2023-03-24T07:07:10;99060.00;;;15.68;93.50
59435;BME280;45241;49.768;8.636;2023-03-24T07:09:37;99060.66;;;15.75;93.43
59435;BME280;45241;49.768;8.636;2023-03-24T07:12:04;99071.16;;;15.71;93.33
59435;BME280;45241;49.768;8.636;2023-03-24T07:14:30;99062.41;;;15.64;93.95
59435;BME280;45241;49.768;8.636;2023-03-24T07:16:55;99050.91;;;15.74;93.82
59435;BME280;45241;49.768;8.636;2023-03-24T07:19:20;99063.16;;;15.81;93.35
59435;BME280;45241;49.768;8.636;2023-03-24T07:21:47;99074.19;;;15.80;93.45
59435;BME280;45241;49.768;8.636;2023-03-24T07:24:15;99072.56;;;15.79;94.22
59435;BME280;45241;49.768;8.636;2023-03-24T07:26:40;99074.94;;;15.70;96.20
59435;BME280;45241;49.768;8.636;2023-03-24T07:29:06;99071.38;;;15.48;98.49
59435;BME280;45241;49.768;8.636;2023-03-24T07:31:31;99076.94;;;15.41;98.71
59435;BME280;45241;49.768;8.636;2023-03-24T07:34:01;99078.84;;;15.41;98.92
59435;BME280;45241;49.768;8.636;2023-03-24T07:36:27;99077.28;;;15.45;97.65
59435;BME280;45241;49.768;8.636;2023-03-24T07:38:52;99071.06;;;15.44;99.33
59435;BME280;45241;49.768;8.636;2023-03-24T07:41:17;99066.47;;;15.45;100.00
59435;BME280;45241;49.768;8.636;2023-03-24T07:43:43;99081.53;;;15.41;99.42
59435;BME280;45241;49.768;8.636;2023-03-24T07:46:08;99088.56;;;15.42;99.72
59435;BME280;45241;49.768;8.636;2023-03-24T07:48:33;99072.25;;;15.32;99.57
59435;BME280;45241;49.768;8.636;2023-03-24T07:50:58;99072.31;;;15.37;98.54
59435;BME280;45241;49.768;8.636;2023-03-24T07:53:24;99062.72;;;15.46;98.57
59435;BME280;45241;49.768;8.636;2023-03-24T07:55:49;99073.81;;;15.49;97.15
59435;BME280;45241;49.768;8.636;2023-03-24T07:58:14;99074.06;;;15.48;96.18
59435;BME280;45241;49.768;8.636;2023-03-24T08:00:40;99076.94;;;15.58;96.77
59435;BME280;45241;49.768;8.636;2023-03-24T08:03:08;99067.34;;;15.50;97.08
59435;BME280;45241;49.768;8.636;2023-03-24T08:05:38;99077.34;;;15.50;96.54
59435;BME280;45241;49.768;8.636;2023-03-24T08:08:03;99080.13;;;15.55;95.78
59435;BME280;45241;49.768;8.636;2023-03-24T08:10:31;99068.16;;;15.51;97.83
59435;BME280;45241;49.768;8.636;2023-03-24T08:12:57;99060.81;;;15.46;97.64
59435;BME280;45241;49.768;8.636;2023-03-24T08:15:24;99059.44;;;15.44;98.80
59435;BME280;45241;49.768;8.636;2023-03-24T08:17:50;99068.53;;;15.38;100.00
59435;BME280;45241;49.768;8.636;2023-03-24T08:20:17;99072.25;;;15.53;99.66
59435;BME280;45241;49.768;8.636;2023-03-24T08:22:46;99076.25;;;15.51;99.64
59435;BME280;45241;49.768;8.636;2023-03-24T08:25:15;99078.34;;;15.44;100.00
59435;BME280;45241;49.768;8.636;2023-03-24T08:27:40;99069.16;;;15.23;100.00
59435;BME280;45241;49.768;8.636;2023-03-24T08:30:09;99082.09;;;15.21;100.00
59435;BME280;45241;49.768;8.636;2023-03-24T08:32:36;99095.38;;;15.06;100.00
59435;BME280;45241;49.768;8.636;2023-03-24T08:35:01;99103.38;;;15.01;100.00
59435;BME280;45241;49.768;8.636;2023-03-24T08:37:29;99090.75;;;15.23;100.00
59435;BME280;45241;49.768;8.636;2023-03-24T08:39:55;99097.19;;;15.39;100.00
59435;BME280;45241;49.768;8.636;2023-03-24T08:42:26;99083.66;;;15.39;100.00
59435;BME280;45241;49.768;8.636;2023-03-24T08:44:51;99082.28;;;15.36;100.00
59435;BME280;45241;49.768;8.636;2023-03-24T08:47:17;99080.97;;;15.17;100.00
59435;BME280;45241;49.768;8.636;2023-03-24T08:49:42;99078.06;;;15.23;100.00
59435;BME280;45241;49.768;8.636;2023-03-24T08:52:07;99080.47;;;15.42;100.00
59435;BME280;45241;49.768;8.636;2023-03-24T08:54:33;99079.59;;;15.36;100.00
59435;BME280;45241;49.768;8.636;2023-03-24T08:56:58;99085.09;;;15.24;100.00
59435;BME280;45241;49.768;8.636;2023-03-24T08:59:23;99079.19;;;15.27;100.00
59435;BME280;45241;49.768;8.636;2023-03-24T09:01:49;99083.81;;;15.49;100.00
59435;BME280;45241;49.768;8.636;2023-03-24T09:04:14;99095.78;;;15.36;100.00
59435;BME280;45241;49.768;8.636;2023-03-24T09:06:40;99084.03;;;15.25;100.00
59435;BME280;45241;49.768;8.636;2023-03-24T09:09:05;99085.81;;;15.37;100.00
59435;BME280;45241;49.768;8.636;2023-03-24T09:11:32;99087.91;;;15.30;100.00
59435;BME280;45241;49.768;8.636;2023-03-24T09:13:58;99082.59;;;15.18;100.00
59435;BME280;45241;49.768;8.636;2023-03-24T09:16:24;99093.50;;;15.28;100.00
59435;BME280;45241;49.768;8.636;2023-03-24T09:18:49;99084.69;;;15.33;100.00
59435;BME280;45241;49.768;8.636;2023-03-24T09:21:15;99087.31;;;15.27;100.00
59435;BME280;45241;49.768;8.636;2023-03-24T09:23:41;99091.06;;;15.26;100.00
59435;BME280;45241;49.768;8.636;2023-03-24T09:26:06;99098.25;;;15.38;100.00
59435;BME280;45241;49.768;8.636;2023-03-24T09:28:32;99105.63;;;15.25;100.00
59435;BME280;45241;49.768;8.636;2023-03-24T09:30:59;99097.63;;;15.14;100.00
59435;BME280;45241;49.768;8.636;2023-03-24T09:33:26;99095.03;;;15.19;100.00
59435;BME280;45241;49.768;8.636;2023-03-24T09:35:55;99091.25;;;15.20;100.00
59435;BME280;45241;49.768;8.636;2023-03-24T09:38:20;99097.16;;;15.17;100.00
59435;BME280;45241;49.768;8.636;2023-03-24T09:40:48;99093.28;;;15.30;100.00
59435;BME280;45241;49.768;8.636;2023-03-24T09:45:52;99093.97;;;15.20;100.00
59435;BME280;45241;49.768;8.636;2023-03-24T09:48:35;99102.06;;;15.03;100.00
59435;BME280;45241;49.768;8.636;2023-03-24T09:51:07;99101.16;;;15.14;100.00
59435;BME280;45241;49.768;8.636;2023-03-24T09:53:51;99113.84;;;15.14;100.00
59435;BME280;45241;49.768;8.636;2023-03-24T09:56:21;99113.72;;;15.25;100.00
59435;BME280;45241;49.768;8.636;2023-03-24T09:58:52;99105.63;;;15.25;100.00
59435;BME280;45241;49.768;8.636;2023-03-24T10:01:23;99109.56;;;15.35;100.00
59435;BME280;45241;49.768;8.636;2023-03-24T10:03:48;99106.28;;;15.33;100.00
59435;BME280;45241;49.768;8.636;2023-03-24T10:06:24;99105.56;;;15.20;100.00
59435;BME280;45241;49.768;8.636;2023-03-24T10:09:02;99112.66;;;15.26;100.00
59435;BME280;45241;49.768;8.636;2023-03-24T10:11:34;99120.28;;;15.30;100.00
59435;BME280;45241;49.768;8.636;2023-03-24T10:16:47;99114.25;;;15.22;100.00
59435;BME280;45241;49.768;8.636;2023-03-24T10:19:36;99118.41;;;15.30;100.00
59435;BME280;45241;49.768;8.636;2023-03-24T10:22:24;99137.78;;;15.27;100.00
59435;BME280;45241;49.768;8.636;2023-03-24T10:28:11;99137.72;;;15.22;100.00
59435;BME280;45241;49.768;8.636;2023-03-24T10:30:41;99150.16;;;15.23;100.00
59435;BME280;45241;49.768;8.636;2023-03-24T10:33:12;99177.66;;;15.20;100.00
59435;BME280;45241;49.768;8.636;2023-03-24T10:35:45;99208.34;;;14.52;100.00
59435;BME280;45241;49.768;8.636;2023-03-24T10:38:17;99211.78;;;14.35;100.00
59435;BME280;45241;49.768;8.636;2023-03-24T10:40:44;99219.53;;;13.92;100.00
59435;BME280;45241;49.768;8.636;2023-03-24T10:43:11;99219.28;;;13.93;100.00
59435;BME280;45241;49.768;8.636;2023-03-24T10:45:42;99226.47;;;13.76;100.00
59435;BME280;45241;49.768;8.636;2023-03-24T10:48:10;99225.03;;;13.85;100.00
59435;BME280;45241;49.768;8.636;2023-03-24T10:50:40;99243.69;;;13.63;100.00
59435;BME280;45241;49.768;8.636;2023-03-24T10:53:10;99247.66;;;13.72;100.00
59435;BME280;45241;49.768;8.636;2023-03-24T10:55:40;99248.84;;;13.65;100.00
59435;BME280;45241;49.768;8.636;2023-03-24T10:58:18;99241.09;;;13.80;100.00
59435;BME280;45241;49.768;8.636;2023-03-24T11:00:46;99242.63;;;13.88;100.00
59435;BME280;45241;49.768;8.636;2023-03-24T11:03:15;99250.03;;;14.21;100.00
59435;BME280;45241;49.768;8.636;2023-03-24T11:05:42;99241.16;;;14.08;100.00
59435;BME280;45241;49.768;8.636;2023-03-24T11:08:22;99252.72;;;14.21;100.00
59435;BME280;45241;49.768;8.636;2023-03-24T11:10:51;99260.09;;;13.73;100.00
59435;BME280;45241;49.768;8.636;2023-03-24T11:13:19;99265.78;;;14.00;100.00
59435;BME280;45241;49.768;8.636;2023-03-24T11:16:12;99257.59;;;13.84;100.00
59435;BME280;45241;49.768;8.636;2023-03-24T11:19:05;99261.91;;;13.96;100.00
59435;BME280;45241;49.768;8.636;2023-03-24T11:21:34;99249.25;;;14.08;100.00
59435;BME280;45241;49.768;8.636;2023-03-24T11:24:02;99254.94;;;14.24;100.00
59435;BME280;45241;49.768;8.636;2023-03-24T11:26:34;99233.81;;;14.44;99.21
59435;BME280;45241;49.768;8.636;2023-03-24T11:29:11;99241.69;;;14.62;98.44
59435;BME280;45241;49.768;8.636;2023-03-24T11:31:38;99244.38;;;14.62;99.12
59435;BME280;45241;49.768;8.636;2023-03-24T11:34:16;99237.81;;;14.70;98.14
59435;BME280;45241;49.768;8.636;2023-03-24T11:36:56;99227.63;;;14.60;94.41
59435;BME280;45241;49.768;8.636;2023-03-24T11:39:27;99233.53;;;14.57;92.97
59435;BME280;45241;49.768;8.636;2023-03-24T11:47:07;99226.19;;;14.70;91.84
59435;BME280;45241;49.768;8.636;2023-03-24T11:49:47;99221.63;;;14.87;96.30
59435;BME280;45241;49.768;8.636;2023-03-24T11:52:22;99234.56;;;15.02;95.09
59435;BME280;45241;49.768;8.636;2023-03-24T11:54:48;99234.91;;;15.05;94.32
59435;BME280;45241;49.768;8.636;2023-03-24T11:57:17;99233.41;;;15.14;96.26
59435;BME280;45241;49.768;8.636;2023-03-24T12:02:23;99230.41;;;15.27;96.97
59435;BME280;45241;49.768;8.636;2023-03-24T12:05:04;99241.84;;;15.35;96.83
59435;BME280;45241;49.768;8.636;2023-03-24T12:10:43;99243.09;;;15.44;96.83
59435;BME280;45241;49.768;8.636;2023-03-24T12:13:14;99243.91;;;15.44;97.22
59435;BME280;45241;49.768;8.636;2023-03-24T12:26:24;99235.47;;;15.41;94.84
59435;BME280;45241;49.768;8.636;2023-03-24T12:28:54;99231.78;;;15.47;94.33
59435;BME280;45241;49.768;8.636;2023-03-24T12:37:24;99241.34;;;15.38;90.42
59435;BME280;45241;49.768;8.636;2023-03-24T12:42:19;99249.31;;;15.61;87.35
59435;BME280;45241;49.768;8.636;2023-03-24T12:50:43;99226.78;;;15.94;84.27
59435;BME280;45241;49.768;8.636;2023-03-24T12:55:55;99231.00;;;16.07;81.62
59435;BME280;45241;49.768;8.636;2023-03-24T12:58:39;99218.78;;;16.21;81.70
59435;BME280;45241;49.768;8.636;2023-03-24T13:03:40;99221.22;;;16.01;78.14
59435;BME280;45241;49.768;8.636;2023-03-24T13:06:35;99229.16;;;16.07;77.87
59435;BME280;45241;49.768;8.636;2023-03-24T13:12:06;99224.09;;;16.16;79.39
59435;BME280;45241;49.768;8.636;2023-03-24T13:14:45;99231.13;;;16.17;77.70
59435;BME280;45241;49.768;8.636;2023-03-24T13:17:18;99226.06;;;16.21;76.22
59435;BME280;45241;49.768;8.636;2023-03-24T13:19:47;99209.84;;;16.21;75.57
59435;BME280;45241;49.768;8.636;2023-03-24T13:22:16;99204.78;;;16.29;73.12
59435;BME280;45241;49.768;8.636;2023-03-24T13:24:43;99202.38;;;16.33;72.59
59435;BME280;45241;49.768;8.636;2023-03-24T13:27:28;99209.34;;;16.51;70.95
59435;BME280;45241;49.768;8.636;2023-03-24T13:30:14;99209.91;;;16.53;68.42
59435;BME280;45241;49.768;8.636;2023-03-24T13:32:52;99199.19;;;16.63;67.59
59435;BME280;45241;49.768;8.636;2023-03-24T13:40:51;99196.69;;;17.52;69.83
59435;BME280;45241;49.768;8.636;2023-03-24T13:43:23;99195.38;;;18.12;68.37
59435;BME280;45241;49.768;8.636;2023-03-24T13:46:04;99192.97;;;18.21;66.27
59435;BME280;45241;49.768;8.636;2023-03-24T13:48:36;99195.63;;;17.58;67.38
59435;BME280;45241;49.768;8.636;2023-03-24T13:53:55;99186.53;;;17.32;66.17
59435;BME280;45241;49.768;8.636;2023-03-24T13:56:32;99184.41;;;17.82;66.34
59435;BME280;45241;49.768;8.636;2023-03-24T14:01:37;99202.50;;;18.34;61.88
59435;BME280;45241;49.768;8.636;2023-03-24T14:06:51;99184.03;;;18.20;58.26
59435;BME280;45241;49.768;8.636;2023-03-24T14:09:24;99186.00;;;18.50;59.33
59435;BME280;45241;49.768;8.636;2023-03-24T14:14:21;99171.63;;;19.42;57.46
59435;BME280;45241;49.768;8.636;2023-03-24T14:19:26;99163.53;;;19.21;53.61
59435;BME280;45241;49.768;8.636;2023-03-24T14:22:02;99157.81;;;18.92;54.54
59435;BME280;45241;49.768;8.636;2023-03-24T14:24:29;99170.00;;;19.46;56.25
59435;BME280;45241;49.768;8.636;2023-03-24T14:26:55;99158.03;;;19.42;55.77
59435;BME280;45241;49.768;8.636;2023-03-24T14:29:40;99149.03;;;19.61;54.66
59435;BME280;45241;49.768;8.636;2023-03-24T14:32:15;99165.66;;;19.45;52.75
59435;BME280;45241;49.768;8.636;2023-03-24T14:34:54;99167.28;;;19.46;53.58
59435;BME280;45241;49.768;8.636;2023-03-24T14:37:21;99175.69;;;19.75;52.81
59435;BME280;45241;49.768;8.636;2023-03-24T14:39:48;99171.03;;;19.65;52.33
59435;BME280;45241;49.768;8.636;2023-03-24T14:44:59;99187.91;;;19.62;51.01
59435;BME280;45241;49.768;8.636;2023-03-24T14:47:26;99179.19;;;19.80;52.52
59435;BME280;45241;49.768;8.636;2023-03-24T14:49:55;99179.72;;;19.82;52.93
59435;BME280;45241;49.768;8.636;2023-03-24T14:52:27;99167.84;;;19.48;52.28
59435;BME280;45241;49.768;8.636;2023-03-24T14:54:58;99170.31;;;19.24;52.20
59435;BME280;45241;49.768;8.636;2023-03-24T14:57:25;99170.03;;;19.15;53.08
59435;BME280;45241;49.768;8.636;2023-03-24T14:59:59;99159.38;;;19.59;52.09
59435;BME280;45241;49.768;8.636;2023-03-24T15:02:34;99159.06;;;19.81;50.98
59435;BME280;45241;49.768;8.636;2023-03-24T15:05:30;99157.88;;;19.98;50.51
59435;BME280;45241;49.768;8.636;2023-03-24T15:08:17;99158.53;;;19.74;47.70
59435;BME280;45241;49.768;8.636;2023-03-24T15:10:52;99155.78;;;20.39;48.45